Time;durP1;ratioP1;P1;durP2;ratioP2;P2;SDS_P1;SDS_P2;PMS_P1;PMS_P2;Temp;Humidity;BMP_temperature;BMP_pressure;BME280_temperature;BME280_humidity;BME280_pressure;Samples;Min_cycle;Max_cycle;Signal;HPM_P1;HPM_P2
2021/10/15 00:01:33;;;;;;;;;85.25;74.50;12.50;53.30;;;;;;4861784;29;8822;-67
2021/10/15 00:03:59;;;;;;;;;83.75;71.25;12.50;53.50;;;;;;4861892;29;8785;-64
2021/10/15 00:06:25;;;;;;;;;87.75;79.00;12.70;53.30;;;;;;4861808;29;8870;-66
2021/10/15 00:08:50;;;;;;;;;85.50;74.25;12.70;53.20;;;;;;4862056;29;8801;-66
2021/10/15 00:11:16;;;;;;;;;89.00;79.25;12.60;52.70;;;;;;4861627;29;8979;-66
2021/10/15 00:13:42;;;;;;;;;86.00;70.25;12.60;53.10;;;;;;4861288;29;8838;-66
2021/10/15 00:16:08;;;;;;;;;82.00;68.00;12.40;52.80;;;;;;4861244;29;8813;-67
2021/10/15 00:18:34;;;;;;;;;85.25;72.00;12.40;53.90;;;;;;4861894;29;8801;-64
2021/10/15 00:20:59;;;;;;;;;82.75;70.50;12.40;53.60;;;;;;4861708;29;8801;-66
2021/10/15 00:23:25;;;;;;;;;77.00;64.00;12.40;53.40;;;;;;4861705;29;8873;-66
2021/10/15 00:25:51;;;;;;;;;83.75;74.00;12.20;53.50;;;;;;4864074;29;8806;-68
2021/10/15 00:28:17;;;;;;;;;76.75;63.50;12.00;54.00;;;;;;4865347;29;8798;-66
2021/10/15 00:30:43;;;;;;;;;78.75;65.00;12.10;54.40;;;;;;4865247;29;8821;-66
2021/10/15 00:33:09;;;;;;;;;78.50;64.75;12.30;54.10;;;;;;4865391;29;8825;-66
2021/10/15 00:35:35;;;;;;;;;81.00;66.25;12.40;53.90;;;;;;4865455;29;8785;-67
2021/10/15 00:38:00;;;;;;;;;83.00;68.75;12.40;53.70;;;;;;4865172;29;8802;-66
2021/10/15 00:40:26;;;;;;;;;82.50;70.75;12.50;53.70;;;;;;4865301;29;8833;-66
2021/10/15 00:42:52;;;;;;;;;81.50;68.00;12.60;53.40;;;;;;4865291;29;8786;-67
2021/10/15 00:45:18;;;;;;;;;82.25;66.25;12.60;53.30;;;;;;4865038;29;8801;-68
2021/10/15 00:47:44;;;;;;;;;90.00;82.50;12.70;53.20;;;;;;4865025;29;8793;-68
2021/10/15 00:50:10;;;;;;;;;87.25;73.25;12.70;52.80;;;;;;4864930;29;8814;-68
2021/10/15 00:52:37;;;;;;;;;87.50;74.75;12.70;52.90;;;;;;4865055;29;8829;-64
2021/10/15 00:55:03;;;;;;;;;86.25;74.75;12.70;52.80;;;;;;4864884;29;8809;-68
2021/10/15 00:57:29;;;;;;;;;82.50;70.75;12.70;53.00;;;;;;4865125;29;8805;-68
2021/10/15 00:59:55;;;;;;;;;88.00;73.75;12.60;53.10;;;;;;4864786;29;8805;-68
2021/10/15 01:02:20;;;;;;;;;82.25;69.25;12.50;53.50;;;;;;4864957;29;8810;-68
2021/10/15 01:04:47;;;;;;;;;88.25;79.75;12.60;53.60;;;;;;4864705;29;9456;-67
2021/10/15 01:07:13;;;;;;;;;81.00;67.50;12.60;53.50;;;;;;4864596;29;8881;-66
2021/10/15 01:09:39;;;;;;;;;84.75;74.75;12.60;53.50;;;;;;4864771;29;8793;-65
2021/10/15 01:12:05;;;;;;;;;84.75;70.50;12.60;53.40;;;;;;4864359;29;8837;-68
2021/10/15 01:14:31;;;;;;;;;75.25;61.75;12.60;53.50;;;;;;4864815;29;8884;-68
2021/10/15 01:17:02;;;;;;;;;76.75;63.25;12.60;53.30;;;;;;4864484;29;8806;-67
2021/10/15 01:19:28;;;;;;;;;84.00;69.50;12.60;53.40;;;;;;4864754;29;9476;-65
2021/10/15 01:21:53;;;;;;;;;85.00;71.25;12.60;53.40;;;;;;4864605;29;8830;-66
2021/10/15 01:24:19;;;;;;;;;83.00;70.75;12.60;53.50;;;;;;4864256;29;8777;-68
2021/10/15 01:26:45;;;;;;;;;81.75;66.25;12.70;53.40;;;;;;4864310;29;8900;-66
2021/10/15 01:29:11;;;;;;;;;82.25;68.50;12.70;53.40;;;;;;4864620;29;8958;-68
2021/10/15 01:31:38;;;;;;;;;84.25;73.75;12.70;53.10;;;;;;4864120;29;8845;-66
2021/10/15 01:34:04;;;;;;;;;78.25;63.00;12.60;53.00;;;;;;4864157;29;8811;-67
2021/10/15 01:36:30;;;;;;;;;86.75;71.50;12.60;53.80;;;;;;4863227;29;8812;-65
2021/10/15 01:38:55;;;;;;;;;82.50;71.75;12.70;53.10;;;;;;4864075;29;8793;-68
2021/10/15 01:41:22;;;;;;;;;83.50;72.50;12.70;53.10;;;;;;4864221;29;8808;-66
2021/10/15 01:43:48;;;;;;;;;86.50;75.25;12.70;52.90;;;;;;4864007;29;8793;-68
2021/10/15 01:46:14;;;;;;;;;83.75;72.00;12.70;52.90;;;;;;4863887;29;8828;-66
2021/10/15 01:48:40;;;;;;;;;88.50;76.50;12.70;52.90;;;;;;4863950;29;8814;-66
2021/10/15 01:51:05;;;;;;;;;82.25;69.00;12.80;52.80;;;;;;4863841;29;8896;-66
2021/10/15 01:53:32;;;;;;;;;86.50;75.50;12.80;52.90;;;;;;4863807;29;8797;-66
2021/10/15 01:55:58;;;;;;;;;84.75;75.25;12.70;53.00;;;;;;4863821;29;8801;-68
2021/10/15 01:58:23;;;;;;;;;84.00;73.75;12.70;53.00;;;;;;4863818;29;8793;-68
2021/10/15 02:00:49;;;;;;;;;84.75;69.75;12.60;52.90;;;;;;4863988;29;8785;-66
2021/10/15 02:03:16;;;;;;;;;85.25;75.75;12.60;53.20;;;;;;4863617;29;8805;-66
2021/10/15 02:05:42;;;;;;;;;89.25;78.25;12.60;53.00;;;;;;4863544;29;8822;-67
2021/10/15 02:08:07;;;;;;;;;82.25;70.00;12.70;53.20;;;;;;4863584;29;8808;-67
2021/10/15 02:10:33;;;;;;;;;78.75;65.00;12.60;53.00;;;;;;4863244;29;8829;-65
2021/10/15 02:12:59;;;;;;;;;84.25;72.00;12.50;53.30;;;;;;4863474;29;8821;-68
2021/10/15 02:15:25;;;;;;;;;81.75;65.00;12.50;53.30;;;;;;4863669;29;8793;-67
2021/10/15 02:17:51;;;;;;;;;84.50;69.75;12.50;53.20;;;;;;4863655;29;8802;-66
2021/10/15 02:20:19;;;;;;;;;77.00;62.50;12.60;53.20;;;;;;4863306;29;9464;-65
2021/10/15 02:22:47;;;;;;;;;83.00;69.25;12.60;53.20;;;;;;4863572;29;8810;-67
2021/10/15 02:25:15;;;;;;;;;79.50;66.25;12.60;53.00;;;;;;4863252;29;8877;-68
2021/10/15 02:27:41;;;;;;;;;80.00;66.25;12.50;53.00;;;;;;4863221;29;8773;-68
2021/10/15 02:30:10;;;;;;;;;81.50;69.25;12.60;53.40;;;;;;4863428;29;8908;-66
2021/10/15 02:32:36;;;;;;;;;81.25;67.50;12.60;53.10;;;;;;4863108;29;8932;-65
2021/10/15 02:35:04;;;;;;;;;76.50;62.50;12.60;53.10;;;;;;4863109;29;8794;-65
2021/10/15 02:37:30;;;;;;;;;81.00;66.50;12.60;53.00;;;;;;4863227;29;8805;-67
2021/10/15 02:39:56;;;;;;;;;79.25;64.75;12.60;53.10;;;;;;4862981;29;8814;-66
2021/10/15 02:42:22;;;;;;;;;83.75;66.25;12.70;53.20;;;;;;4863157;29;8916;-66
2021/10/15 02:44:47;;;;;;;;;81.50;64.75;12.70;53.00;;;;;;4862841;29;8781;-65
2021/10/15 02:47:13;;;;;;;;;83.00;68.25;12.70;53.30;;;;;;4862591;29;8801;-65
2021/10/15 02:49:39;;;;;;;;;82.75;69.75;12.60;53.10;;;;;;4863021;29;8836;-66
2021/10/15 02:52:05;;;;;;;;;82.75;69.25;12.60;53.20;;;;;;4862983;29;9480;-65
2021/10/15 02:54:31;;;;;;;;;77.00;62.25;12.60;54.10;;;;;;4862723;29;8823;-67
2021/10/15 02:56:56;;;;;;;;;85.00;71.75;12.50;53.20;;;;;;4862757;29;8808;-66
2021/10/15 02:59:22;;;;;;;;;83.50;68.25;12.60;53.30;;;;;;4862726;29;8786;-65
2021/10/15 03:01:48;;;;;;;;;79.75;65.25;12.60;53.30;;;;;;4862564;29;8898;-65
2021/10/15 03:04:14;;;;;;;;;82.50;70.25;12.60;53.30;;;;;;4862624;29;8813;-65
2021/10/15 03:06:40;;;;;;;;;86.00;76.50;12.60;53.40;;;;;;4862890;29;8809;-65
2021/10/15 03:09:06;;;;;;;;;84.75;72.50;12.60;53.10;;;;;;4862644;29;8782;-66
2021/10/15 03:11:32;;;;;;;;;85.75;72.00;12.40;53.30;;;;;;4862459;29;8841;-65
2021/10/15 03:13:58;;;;;;;;;86.75;69.00;12.40;53.30;;;;;;4862444;29;8817;-65
2021/10/15 03:16:24;;;;;;;;;81.50;66.25;12.30;53.60;;;;;;4862598;29;8793;-65
2021/10/15 03:18:50;;;;;;;;;85.75;71.25;12.00;53.60;;;;;;4862389;29;8844;-66
2021/10/15 03:21:16;;;;;;;;;84.50;72.75;12.00;54.20;;;;;;4862316;29;8833;-66
2021/10/15 03:23:42;;;;;;;;;78.00;64.00;12.10;54.00;;;;;;4862426;29;8778;-65
2021/10/15 03:26:08;;;;;;;;;72.00;59.00;12.20;53.70;;;;;;4862418;29;8769;-65
2021/10/15 03:28:34;;;;;;;;;82.50;67.00;12.10;53.40;;;;;;4862486;29;8789;-65
2021/10/15 03:30:59;;;;;;;;;81.25;69.25;12.20;53.40;;;;;;4862259;29;8801;-65
2021/10/15 03:33:25;;;;;;;;;80.50;65.25;12.20;53.20;;;;;;4862139;29;8814;-65
2021/10/15 03:35:51;;;;;;;;;82.50;70.00;12.30;53.40;;;;;;4862392;29;8797;-65
2021/10/15 03:38:17;;;;;;;;;82.00;67.50;12.40;53.40;;;;;;4861997;29;8810;-64
2021/10/15 03:40:42;;;;;;;;;85.00;73.25;12.40;53.30;;;;;;4862077;29;8931;-66
2021/10/15 03:43:08;;;;;;;;;79.50;64.75;12.50;53.10;;;;;;4862059;29;8814;-65
2021/10/15 03:45:34;;;;;;;;;80.00;66.25;12.50;52.90;;;;;;4861280;29;8825;-66
2021/10/15 03:48:00;;;;;;;;;82.50;71.25;12.60;53.00;;;;;;4862226;29;8945;-65
2021/10/15 03:50:25;;;;;;;;;81.75;67.00;12.60;53.00;;;;;;4861689;29;8805;-65
2021/10/15 03:52:51;;;;;;;;;83.75;70.00;12.50;52.70;;;;;;4861842;29;8837;-67
2021/10/15 03:55:17;;;;;;;;;81.00;67.50;12.40;53.10;;;;;;4861848;29;8828;-66
2021/10/15 03:57:43;;;;;;;;;77.00;63.25;12.40;52.90;;;;;;4862121;29;8814;-66
2021/10/15 04:00:11;;;;;;;;;78.50;65.25;12.30;53.10;;;;;;4861201;29;9424;-68
2021/10/15 04:02:42;;;;;;;;;76.00;62.50;12.40;53.20;;;;;;4862052;29;8785;-67
2021/10/15 04:05:09;;;;;;;;;76.25;62.75;12.30;53.50;;;;;;4862079;29;8798;-66
2021/10/15 04:07:35;;;;;;;;;78.25;64.00;12.20;53.50;;;;;;4861858;29;8786;-67
2021/10/15 04:10:03;;;;;;;;;80.75;66.00;12.00;53.70;;;;;;4862017;29;9552;-67
2021/10/15 04:12:28;;;;;;;;;82.00;65.75;12.20;54.30;;;;;;4861536;29;8921;-66
2021/10/15 04:14:54;;;;;;;;;80.50;66.25;12.20;54.00;;;;;;4861622;29;8805;-67
2021/10/15 04:17:20;;;;;;;;;82.75;66.25;12.30;54.10;;;;;;4861946;29;8801;-65
2021/10/15 04:19:46;;;;;;;;;77.50;63.25;12.30;54.10;;;;;;4861802;29;8851;-66
2021/10/15 04:22:12;;;;;;;;;71.50;58.75;12.10;54.40;;;;;;4861998;29;8855;-67
2021/10/15 04:24:40;;;;;;;;;73.50;60.00;12.20;54.30;;;;;;4861731;29;8802;-65
2021/10/15 04:27:07;;;;;;;;;79.00;64.75;12.30;54.00;;;;;;4861906;29;8828;-67
2021/10/15 04:29:33;;;;;;;;;80.00;65.50;12.40;53.90;;;;;;4861896;29;8915;-66
2021/10/15 04:32:00;;;;;;;;;80.50;66.00;12.30;53.30;;;;;;4861647;29;8840;-65
2021/10/15 04:34:26;;;;;;;;;89.00;78.50;12.20;53.70;;;;;;4861720;29;9682;-66
2021/10/15 04:36:52;;;;;;;;;76.00;62.75;12.10;54.10;;;;;;4861539;29;8829;-67
2021/10/15 04:39:18;;;;;;;;;74.25;60.75;12.30;55.00;;;;;;4861572;29;8892;-64
2021/10/15 04:41:44;;;;;;;;;76.00;63.00;12.30;53.80;;;;;;4861092;29;9783;-64
2021/10/15 04:44:10;;;;;;;;;80.75;67.25;12.40;53.90;;;;;;4861456;29;8883;-66
2021/10/15 04:46:35;;;;;;;;;79.50;66.50;12.40;53.60;;;;;;4861466;29;8813;-64
2021/10/15 04:49:02;;;;;;;;;80.50;65.00;12.30;53.70;;;;;;4861663;29;8793;-67
2021/10/15 04:51:28;;;;;;;;;84.75;70.25;12.10;54.00;;;;;;4860916;29;9619;-65
2021/10/15 04:53:54;;;;;;;;;81.75;70.25;12.00;54.30;;;;;;4861086;29;8782;-63
2021/10/15 04:56:20;;;;;;;;;73.00;60.25;12.00;54.70;;;;;;4860977;29;8805;-64
2021/10/15 04:58:45;;;;;;;;;79.25;64.25;12.10;54.20;;;;;;4860782;29;8829;-64
2021/10/15 05:01:11;;;;;;;;;78.75;63.75;12.20;53.90;;;;;;4860771;29;8804;-65
2021/10/15 05:03:37;;;;;;;;;78.00;64.50;12.10;53.70;;;;;;4860726;29;8813;-65
2021/10/15 05:06:03;;;;;;;;;77.25;63.00;12.00;54.00;;;;;;4860700;29;8892;-64
2021/10/15 05:08:39;;;;;;;;;78.00;63.50;11.80;54.00;;;;;;4861110;29;8793;-65
2021/10/15 05:11:04;;;;;;;;;71.75;60.00;11.90;54.50;;;;;;4860910;29;8833;-63
2021/10/15 05:13:31;;;;;;;;;77.25;64.00;12.00;54.40;;;;;;4864136;29;8836;-64
2021/10/15 05:15:57;;;;;;;;;78.75;64.50;12.10;54.10;;;;;;4863541;29;8836;-63
2021/10/15 05:18:23;;;;;;;;;79.75;65.00;12.20;53.90;;;;;;4864003;29;8872;-62
2021/10/15 05:20:48;;;;;;;;;67.75;56.50;12.20;54.20;;;;;;4863417;29;8822;-62
2021/10/15 05:23:14;;;;;;;;;70.50;58.00;12.10;53.80;;;;;;4863774;29;8797;-65
2021/10/15 05:25:41;;;;;;;;;72.25;58.75;12.10;54.00;;;;;;4863430;29;8789;-65
2021/10/15 05:28:06;;;;;;;;;73.00;60.00;11.90;54.40;;;;;;4864274;29;8904;-65
2021/10/15 05:30:32;;;;;;;;;70.25;58.00;12.10;54.80;;;;;;4863946;29;8919;-64
2021/10/15 05:32:59;;;;;;;;;69.50;57.75;12.20;54.40;;;;;;4863705;29;8833;-67
2021/10/15 05:35:25;;;;;;;;;78.00;62.75;12.40;54.20;;;;;;4863847;29;8861;-66
2021/10/15 05:37:51;;;;;;;;;79.00;65.75;12.40;53.90;;;;;;4864044;29;8801;-65
2021/10/15 05:40:17;;;;;;;;;76.25;63.75;12.50;53.60;;;;;;4864135;29;8810;-64
2021/10/15 05:42:48;;;;;;;;;76.00;63.00;12.60;53.50;;;;;;4864278;29;8813;-64
2021/10/15 05:45:15;;;;;;;;;79.25;64.00;12.60;53.50;;;;;;4863983;29;8987;-65
2021/10/15 05:47:41;;;;;;;;;81.00;65.00;12.70;53.40;;;;;;4863879;29;8879;-65
2021/10/15 05:50:09;;;;;;;;;82.50;69.00;12.80;53.40;;;;;;4864161;29;8801;-64
2021/10/15 05:52:39;;;;;;;;;86.50;73.25;12.80;53.00;;;;;;4864164;29;8880;-66
2021/10/15 05:55:35;;;;;;;;;82.00;65.50;12.80;52.80;;;;;;4863788;29;8813;-64
2021/10/15 06:00:24;;;;;;;;;77.75;63.50;12.90;52.90;;;;;;4864046;29;8801;-64
2021/10/15 06:02:50;;;;;;;;;78.50;63.75;12.90;52.70;;;;;;4863762;29;8785;-64
2021/10/15 06:15:47;;;;;;;;;78.50;64.50;13.00;52.60;;;;;;4863580;29;8766;-66
2021/10/15 06:18:18;;;;;;;;;67.00;56.00;13.00;52.20;;;;;;4863558;29;8798;-64
2021/10/15 06:20:45;;;;;;;;;80.75;68.75;12.90;51.90;;;;;;4863765;29;9560;-66
2021/10/15 06:23:11;;;;;;;;;81.25;69.25;13.00;51.90;;;;;;4861744;29;8813;-65
2021/10/15 06:25:37;;;;;;;;;79.00;64.50;13.10;52.20;;;;;;4863645;29;8828;-66
2021/10/15 06:28:04;;;;;;;;;83.75;72.75;13.20;52.10;;;;;;4864242;29;8806;-66
2021/10/15 06:30:31;;;;;;;;;81.50;66.50;13.20;51.90;;;;;;4864360;29;8877;-66
2021/10/15 06:32:57;;;;;;;;;78.00;63.25;13.30;51.70;;;;;;4864081;29;8841;-65
2021/10/15 06:35:24;;;;;;;;;65.25;54.00;13.40;51.60;;;;;;4863138;29;8924;-65
2021/10/15 06:37:51;;;;;;;;;71.00;59.00;13.20;51.90;;;;;;4863032;29;8814;-65
2021/10/15 06:40:17;;;;;;;;;75.50;62.00;13.40;51.70;;;;;;4863068;29;8861;-63
2021/10/15 06:42:43;;;;;;;;;75.50;62.00;13.40;51.60;;;;;;4862789;29;8898;-67
2021/10/15 06:45:09;;;;;;;;;82.00;68.00;13.30;51.30;;;;;;4863049;29;8904;-66
2021/10/15 06:47:35;;;;;;;;;80.25;65.50;13.20;51.50;;;;;;4863188;29;8897;-63
2021/10/15 06:50:02;;;;;;;;;75.00;61.50;13.30;51.80;;;;;;4862770;29;8781;-64
2021/10/15 06:52:30;;;;;;;;;78.25;64.75;13.40;51.50;;;;;;4863082;29;9512;-64
2021/10/15 06:54:56;;;;;;;;;79.50;65.50;13.40;51.30;;;;;;4862691;29;8906;-62
2021/10/15 06:57:22;;;;;;;;;80.50;67.50;13.60;51.30;;;;;;4862582;29;8951;-64
2021/10/15 06:59:47;;;;;;;;;78.00;63.25;13.70;51.00;;;;;;4861971;29;8839;-64
2021/10/15 07:02:13;;;;;;;;;77.50;62.75;13.60;50.60;;;;;;4862420;29;8904;-63
2021/10/15 07:04:39;;;;;;;;;76.75;63.00;13.50;50.80;;;;;;4862187;29;8880;-66
2021/10/15 07:07:05;;;;;;;;;81.75;70.25;13.60;50.80;;;;;;4862188;29;9433;-64
2021/10/15 07:09:30;;;;;;;;;80.00;65.25;13.70;50.90;;;;;;4862418;29;8793;-67
2021/10/15 07:11:56;;;;;;;;;77.00;63.00;13.70;50.70;;;;;;4862039;29;8861;-66
2021/10/15 07:14:22;;;;;;;;;77.75;65.00;13.60;50.60;;;;;;4862407;29;8908;-67
2021/10/15 07:16:48;;;;;;;;;83.75;68.75;13.60;50.80;;;;;;4862598;29;8822;-65
2021/10/15 07:19:14;;;;;;;;;76.75;63.00;13.50;50.80;;;;;;4862426;29;8798;-66
2021/10/15 07:21:40;;;;;;;;;80.50;66.50;13.60;51.00;;;;;;4862434;29;8860;-65
2021/10/15 07:24:06;;;;;;;;;80.25;66.00;13.40;51.30;;;;;;4862333;29;8896;-66
2021/10/15 07:26:32;;;;;;;;;71.25;58.25;13.30;51.40;;;;;;4862349;29;8801;-67
2021/10/15 07:28:58;;;;;;;;;73.50;60.00;13.00;51.60;;;;;;4862209;29;8912;-66
2021/10/15 07:31:24;;;;;;;;;69.25;58.00;13.00;52.10;;;;;;4862383;29;8920;-65
2021/10/15 07:33:50;;;;;;;;;65.50;55.00;13.20;51.90;;;;;;4861799;29;8816;-64
2021/10/15 07:36:16;;;;;;;;;58.25;49.50;13.30;51.50;;;;;;4861752;29;8844;-66
2021/10/15 07:38:42;;;;;;;;;59.00;50.50;13.40;51.30;;;;;;4862130;29;8814;-65
2021/10/15 07:41:09;;;;;;;;;65.00;55.00;13.30;50.90;;;;;;4862068;29;8801;-64
2021/10/15 07:43:36;;;;;;;;;62.50;51.50;13.30;51.20;;;;;;4862313;29;9667;-62
2021/10/15 07:46:02;;;;;;;;;59.00;50.00;13.30;50.90;;;;;;4861981;29;8813;-65
2021/10/15 07:48:28;;;;;;;;;61.50;51.75;13.40;50.50;;;;;;4861914;29;8835;-63
2021/10/15 07:50:54;;;;;;;;;64.00;53.25;13.40;50.50;;;;;;4862165;29;8956;-65
2021/10/15 07:53:20;;;;;;;;;62.75;53.00;13.50;50.60;;;;;;4862101;29;8852;-70
2021/10/15 07:55:46;;;;;;;;;59.50;51.25;13.50;50.70;;;;;;4862196;29;9536;-65
2021/10/15 07:58:12;;;;;;;;;48.00;42.00;13.30;50.90;;;;;;4861848;29;8793;-66
2021/10/15 08:00:38;;;;;;;;;55.75;47.75;13.00;51.00;;;;;;4861866;29;8786;-66
2021/10/15 08:03:07;;;;;;;;;48.25;42.00;13.10;51.70;;;;;;4862062;29;8884;-64
2021/10/15 08:05:33;;;;;;;;;50.00;42.25;13.00;51.60;;;;;;4861985;29;8839;-65
2021/10/15 08:07:59;;;;;;;;;65.25;55.00;13.00;51.40;;;;;;4861791;29;9449;-64
2021/10/15 08:10:25;;;;;;;;;42.50;38.50;13.30;51.60;;;;;;4861550;29;8798;-65
2021/10/15 08:12:52;;;;;;;;;51.25;44.25;13.50;51.30;;;;;;4861926;29;8832;-64
2021/10/15 08:15:18;;;;;;;;;52.25;44.25;13.70;51.00;;;;;;4861887;29;8856;-66
2021/10/15 08:17:45;;;;;;;;;57.25;49.00;13.60;50.60;;;;;;4860561;29;8821;-65
2021/10/15 08:20:14;;;;;;;;;56.00;48.00;13.40;50.80;;;;;;4861746;29;8797;-65
2021/10/15 08:22:40;;;;;;;;;56.00;47.75;13.20;50.60;;;;;;4862065;29;8814;-65
2021/10/15 08:25:07;;;;;;;;;48.00;42.25;13.10;51.20;;;;;;4861706;29;9012;-64
2021/10/15 08:27:33;;;;;;;;;62.00;50.50;13.10;51.80;;;;;;4862016;29;8820;-66
2021/10/15 08:29:59;;;;;;;;;54.75;45.50;13.00;52.10;;;;;;4861994;29;8802;-66
2021/10/15 08:32:26;;;;;;;;;56.00;48.25;13.00;52.30;;;;;;4861738;29;8852;-69
2021/10/15 08:34:52;;;;;;;;;55.25;48.00;13.20;51.90;;;;;;4861712;29;8806;-65
2021/10/15 08:37:18;;;;;;;;;57.50;49.25;13.20;51.50;;;;;;4861864;29;8789;-66
2021/10/15 08:39:43;;;;;;;;;62.25;51.50;13.50;51.80;;;;;;4861607;29;8828;-66
2021/10/15 08:42:09;;;;;;;;;62.75;53.50;13.80;50.60;;;;;;4861386;29;8809;-67
2021/10/15 08:44:41;;;;;;;;;62.00;51.50;14.00;50.40;;;;;;4861443;29;8798;-69
2021/10/15 08:47:08;;;;;;;;;59.25;50.50;14.10;49.90;;;;;;4864267;29;9417;-69
2021/10/15 08:49:34;;;;;;;;;62.25;52.00;14.30;49.40;;;;;;4865110;29;8785;-66
2021/10/15 08:52:00;;;;;;;;;60.25;52.00;14.30;49.20;;;;;;4865197;29;8842;-68
2021/10/15 08:54:28;;;;;;;;;63.75;52.00;14.40;49.70;;;;;;4865182;29;8832;-67
2021/10/15 08:56:57;;;;;;;;;60.75;51.75;14.30;48.90;;;;;;4864775;29;8832;-68
2021/10/15 08:59:48;;;;;;;;;53.75;46.00;14.40;49.30;;;;;;4864786;29;8798;-69
2021/10/15 09:02:17;;;;;;;;;62.75;53.00;14.50;48.80;;;;;;4864806;29;8817;-67
2021/10/15 09:04:54;;;;;;;;;51.50;44.25;14.60;48.70;;;;;;4864765;29;8828;-67
2021/10/15 09:07:22;;;;;;;;;60.75;51.25;14.80;48.70;;;;;;4864758;29;8802;-68
2021/10/15 09:09:50;;;;;;;;;62.00;51.50;14.80;48.30;;;;;;4864853;29;9526;-69
2021/10/15 09:12:19;;;;;;;;;65.00;54.75;14.70;47.70;;;;;;4864471;29;9612;-64
2021/10/15 09:14:47;;;;;;;;;61.50;51.50;14.40;48.30;;;;;;4864555;29;8790;-65
2021/10/15 09:17:15;;;;;;;;;64.00;53.00;14.50;49.00;;;;;;4864720;29;8797;-66
2021/10/15 09:19:52;;;;;;;;;60.00;50.00;14.70;48.60;;;;;;4864475;29;8789;-67
2021/10/15 09:22:29;;;;;;;;;59.75;50.75;14.90;48.20;;;;;;4864871;29;8852;-66
2021/10/15 09:24:57;;;;;;;;;56.75;47.25;14.80;48.20;;;;;;4864251;29;8896;-66
2021/10/15 09:27:38;;;;;;;;;55.75;46.50;14.80;48.10;;;;;;4864349;29;8817;-66
2021/10/15 09:30:21;;;;;;;;;57.00;48.50;14.80;47.50;;;;;;4864229;29;8814;-69
2021/10/15 09:32:52;;;;;;;;;56.25;47.75;14.80;47.30;;;;;;4864086;29;8920;-69
2021/10/15 09:35:23;;;;;;;;;54.25;46.00;14.90;47.40;;;;;;4864417;29;8786;-70
2021/10/15 09:37:54;;;;;;;;;55.00;45.50;15.00;47.40;;;;;;4864098;29;8805;-67
2021/10/15 09:40:23;;;;;;;;;52.25;46.00;15.10;47.80;;;;;;4864290;29;9611;-67
2021/10/15 09:42:55;;;;;;;;;58.00;49.50;15.10;47.30;;;;;;4864030;29;8948;-67
2021/10/15 09:45:36;;;;;;;;;57.50;49.25;15.10;46.90;;;;;;4863645;29;8797;-67
2021/10/15 09:48:16;;;;;;;;;60.50;51.00;14.90;47.60;;;;;;4863550;29;8806;-65
2021/10/15 09:50:42;;;;;;;;;58.75;50.00;15.00;47.60;;;;;;4863583;29;8964;-65
2021/10/15 09:53:09;;;;;;;;;54.75;46.50;15.10;47.60;;;;;;4863420;29;8952;-65
2021/10/15 09:55:41;;;;;;;;;64.50;53.75;15.20;47.40;;;;;;4863618;29;8808;-67
2021/10/15 09:58:19;;;;;;;;;58.50;49.75;15.20;47.30;;;;;;4862591;29;8870;-65
2021/10/15 10:00:47;;;;;;;;;63.00;51.50;15.20;47.50;;;;;;4863795;29;8828;-64
2021/10/15 10:03:14;;;;;;;;;54.00;46.25;15.00;47.00;;;;;;4863835;29;8810;-65
2021/10/15 10:05:40;;;;;;;;;54.00;46.00;15.00;47.50;;;;;;4863750;29;8961;-66
2021/10/15 10:08:07;;;;;;;;;56.75;47.75;14.90;47.30;;;;;;4863577;29;8919;-65
2021/10/15 10:10:35;;;;;;;;;59.00;49.00;14.90;47.60;;;;;;4863301;29;8865;-65
2021/10/15 10:13:02;;;;;;;;;50.25;42.50;14.90;47.40;;;;;;4863440;29;9476;-65
2021/10/15 10:15:31;;;;;;;;;54.50;46.50;15.00;47.60;;;;;;4863530;29;8793;-64
2021/10/15 10:18:27;;;;;;;;;62.00;50.75;15.00;47.40;;;;;;4863411;29;8896;-66
2021/10/15 10:21:05;;;;;;;;;60.75;51.75;14.90;47.00;;;;;;4862893;29;8845;-66
2021/10/15 10:23:42;;;;;;;;;59.75;51.00;15.00;47.40;;;;;;4863548;29;8789;-66
2021/10/15 10:26:13;;;;;;;;;61.25;51.00;15.10;48.50;;;;;;4863372;29;8801;-66
2021/10/15 10:28:39;;;;;;;;;68.75;56.50;15.10;47.50;;;;;;4863267;29;8855;-65
2021/10/15 10:31:21;;;;;;;;;64.00;54.25;15.00;47.20;;;;;;4863239;29;8792;-69
2021/10/15 10:33:59;;;;;;;;;67.25;55.00;15.10;47.50;;;;;;4863320;29;8833;-67
2021/10/15 10:36:27;;;;;;;;;68.50;56.00;15.10;47.50;;;;;;4863088;29;8809;-67
2021/10/15 10:38:53;;;;;;;;;63.00;52.25;15.10;47.60;;;;;;4863045;29;8829;-66
2021/10/15 10:41:27;;;;;;;;;64.00;53.50;15.00;47.60;;;;;;4863310;29;8821;-67
2021/10/15 10:43:53;;;;;;;;;67.50;56.25;15.00;47.80;;;;;;4863034;29;9045;-66
2021/10/15 10:46:22;;;;;;;;;64.00;54.50;15.00;47.80;;;;;;4862966;29;8908;-66
2021/10/15 10:48:51;;;;;;;;;63.25;52.00;14.80;47.70;;;;;;4863017;29;8781;-67
2021/10/15 10:51:27;;;;;;;;;65.50;54.50;14.80;47.90;;;;;;4862839;29;8847;-66
2021/10/15 10:53:59;;;;;;;;;66.00;54.25;14.90;48.30;;;;;;4862813;29;8839;-67
2021/10/15 10:56:50;;;;;;;;;69.25;57.00;14.90;48.60;;;;;;4862985;29;8781;-66
2021/10/15 10:59:16;;;;;;;;;65.00;54.00;14.90;48.80;;;;;;4862965;29;9465;-67
2021/10/15 11:01:46;;;;;;;;;66.50;56.00;14.90;48.30;;;;;;4862726;29;8812;-67
2021/10/15 11:04:34;;;;;;;;;59.25;50.25;14.90;48.50;;;;;;4862679;29;8801;-67
2021/10/15 11:07:04;;;;;;;;;64.00;52.00;14.90;48.40;;;;;;4862556;29;8805;-67
2021/10/15 11:09:55;;;;;;;;;58.75;49.25;14.90;48.30;;;;;;4862234;29;8906;-66
2021/10/15 11:12:25;;;;;;;;;58.75;50.50;14.90;48.60;;;;;;4862212;29;8857;-66
2021/10/15 11:14:58;;;;;;;;;57.50;49.25;14.70;48.50;;;;;;4862282;29;8912;-66
2021/10/15 11:17:26;;;;;;;;;55.00;46.00;14.80;48.60;;;;;;4862562;29;8793;-65
2021/10/15 11:20:20;;;;;;;;;57.75;49.00;14.70;48.70;;;;;;4862448;29;9480;-65
2021/10/15 11:22:56;;;;;;;;;62.75;52.25;14.50;49.10;;;;;;4862135;29;8920;-65
2021/10/15 11:25:28;;;;;;;;;57.50;48.50;14.60;50.30;;;;;;4862242;29;9508;-65
2021/10/15 11:27:57;;;;;;;;;60.25;50.75;14.50;49.20;;;;;;4862502;29;8963;-65
2021/10/15 11:30:26;;;;;;;;;59.75;50.25;14.50;49.60;;;;;;4862216;29;8837;-65
2021/10/15 11:32:53;;;;;;;;;60.50;51.00;14.50;49.80;;;;;;4862104;29;8905;-65
2021/10/15 11:35:32;;;;;;;;;58.75;50.25;14.40;49.60;;;;;;4862324;29;8948;-65
2021/10/15 11:38:21;;;;;;;;;55.25;47.50;14.40;49.70;;;;;;4862224;29;8801;-65
2021/10/15 11:40:48;;;;;;;;;60.00;51.50;14.40;49.60;;;;;;4862255;29;8891;-64
2021/10/15 11:43:22;;;;;;;;;58.50;49.50;14.40;50.10;;;;;;4862156;29;8836;-64
2021/10/15 11:45:58;;;;;;;;;58.75;50.50;14.40;49.90;;;;;;4862022;29;8836;-65
2021/10/15 11:48:42;;;;;;;;;56.75;48.75;14.60;49.80;;;;;;4861948;29;8798;-64
2021/10/15 11:51:28;;;;;;;;;60.00;50.00;14.70;49.60;;;;;;4861853;29;8830;-64
2021/10/15 11:54:02;;;;;;;;;55.75;48.25;14.70;49.40;;;;;;4862136;29;9543;-64
2021/10/15 11:56:34;;;;;;;;;57.00;49.00;14.70;49.40;;;;;;4861995;29;8809;-63
2021/10/15 11:59:04;;;;;;;;;57.00;48.25;14.60;49.10;;;;;;4861998;29;8809;-64
2021/10/15 12:01:32;;;;;;;;;55.75;48.00;14.60;49.50;;;;;;4861975;29;8877;-64
2021/10/15 12:04:00;;;;;;;;;54.25;46.50;14.60;49.50;;;;;;4861922;29;8801;-63
2021/10/15 12:06:28;;;;;;;;;66.75;55.00;14.50;50.00;;;;;;4861813;29;8882;-64
2021/10/15 12:09:11;;;;;;;;;54.25;47.00;14.60;49.90;;;;;;4862007;29;8821;-63
2021/10/15 12:11:40;;;;;;;;;54.75;46.00;14.60;49.60;;;;;;4861835;29;8841;-62
2021/10/15 12:14:10;;;;;;;;;57.50;49.25;14.60;49.50;;;;;;4861734;29;8801;-62
2021/10/15 12:16:42;;;;;;;;;60.50;51.50;14.60;49.60;;;;;;4862057;29;8793;-63
2021/10/15 12:19:20;;;;;;;;;55.75;47.75;14.60;49.50;;;;;;4861346;29;8805;-63
2021/10/15 12:22:06;;;;;;;;;61.75;51.75;14.60;49.40;;;;;;4864284;29;9465;-64
2021/10/15 12:24:41;;;;;;;;;67.50;55.00;14.80;49.40;;;;;;4865356;29;8801;-66
2021/10/15 12:27:24;;;;;;;;;60.00;50.00;14.90;50.30;;;;;;4865048;29;8798;-65
2021/10/15 12:29:58;;;;;;;;;57.75;49.50;14.80;50.40;;;;;;4864896;29;8801;-71
2021/10/15 12:32:34;;;;;;;;;58.50;49.25;14.90;50.10;;;;;;4864962;29;8878;-64
2021/10/15 12:35:15;;;;;;;;;58.75;49.75;15.00;50.90;;;;;;4864961;29;8801;-65
2021/10/15 12:37:49;;;;;;;;;54.75;47.00;15.00;50.50;;;;;;4865180;29;8800;-65
2021/10/15 12:40:32;;;;;;;;;54.75;46.75;14.70;49.70;;;;;;4864733;29;8989;-65
2021/10/15 12:43:01;;;;;;;;;63.25;52.00;14.60;50.10;;;;;;4865218;29;9718;-67
2021/10/15 12:45:31;;;;;;;;;58.00;49.50;14.70;50.60;;;;;;4865052;29;8865;-64
2021/10/15 12:48:19;;;;;;;;;61.50;51.50;14.80;50.30;;;;;;4865011;29;8809;-64
2021/10/15 12:51:06;;;;;;;;;63.00;53.00;14.80;50.50;;;;;;4864968;29;8805;-65
2021/10/15 12:53:41;;;;;;;;;66.25;53.50;14.80;50.20;;;;;;4864701;29;8921;-65
2021/10/15 12:56:21;;;;;;;;;63.75;54.00;14.80;50.50;;;;;;4864749;29;8833;-65